Time;durP1;ratioP1;P1;durP2;ratioP2;P2;SDS_P1;SDS_P2;PMS_P1;PMS_P2;Temp;Humidity;BMP_temperature;BMP_pressure;BME280_temperature;BME280_humidity;BME280_pressure;Samples;Min_cycle;Max_cycle;Signal;HPM_P1;HPM_P2
2024/03/06 00:01:56;;;;;;;4.00;3.60;;;10.50;99.90;;;;;;5056642;28;20437;-45
2024/03/06 00:04:26;;;;;;;4.17;3.30;;;10.50;99.90;;;;;;5051271;28;20499;-45
2024/03/06 00:06:57;;;;;;;3.87;3.47;;;10.50;99.90;;;;;;5052736;28;20467;-46
2024/03/06 00:09:27;;;;;;;4.50;4.03;;;10.50;99.90;;;;;;5055362;28;20442;-46
2024/03/06 00:11:58;;;;;;;3.93;3.27;;;10.50;99.90;;;;;;5057987;28;20432;-45
2024/03/06 00:14:27;;;;;;;4.87;3.70;;;10.50;99.90;;;;;;5053875;28;20549;-45
2024/03/06 00:16:57;;;;;;;3.47;2.73;;;10.50;99.90;;;;;;5053254;28;20448;-45
2024/03/06 00:19:26;;;;;;;3.80;3.23;;;10.50;99.90;;;;;;5050613;28;20459;-46
2024/03/06 00:21:56;;;;;;;2.93;2.50;;;10.50;99.90;;;;;;5057603;28;20435;-46
2024/03/06 00:24:26;;;;;;;4.27;3.30;;;10.50;99.90;;;;;;5054486;28;20467;-45
2024/03/06 00:26:56;;;;;;;3.03;2.70;;;10.50;99.90;;;;;;5054904;28;20447;-44
2024/03/06 00:29:25;;;;;;;2.93;2.43;;;10.50;99.90;;;;;;5053417;28;21051;-45
2024/03/06 00:31:55;;;;;;;3.80;2.63;;;10.50;99.90;;;;;;5049630;28;20439;-45
2024/03/06 00:34:27;;;;;;;3.23;2.63;;;10.50;99.90;;;;;;5050711;28;20537;-46
2024/03/06 00:36:57;;;;;;;2.80;2.37;;;10.50;99.90;;;;;;5056345;28;20435;-44
2024/03/06 00:39:26;;;;;;;4.13;2.70;;;10.50;99.90;;;;;;5055082;28;20471;-46
2024/03/06 00:41:56;;;;;;;3.03;2.70;;;10.50;99.90;;;;;;5059545;28;20435;-45
2024/03/06 00:44:26;;;;;;;2.90;2.50;;;10.50;99.90;;;;;;5052891;28;20482;-45
2024/03/06 00:46:56;;;;;;;3.40;2.90;;;10.50;99.90;;;;;;5045525;28;20450;-45
2024/03/06 00:49:25;;;;;;;3.40;2.80;;;10.50;99.90;;;;;;5050337;28;20792;-45
2024/03/06 00:51:56;;;;;;;4.33;2.90;;;10.50;99.90;;;;;;5050734;28;20497;-45
2024/03/06 00:54:26;;;;;;;3.93;2.93;;;10.50;99.90;;;;;;5058323;28;20481;-46
2024/03/06 00:56:57;;;;;;;3.70;2.83;;;10.50;99.90;;;;;;5055639;28;20861;-45
2024/03/06 00:59:26;;;;;;;2.30;1.90;;;10.50;99.90;;;;;;5051959;28;20449;-45
2024/03/06 01:01:56;;;;;;;4.30;2.63;;;10.50;99.90;;;;;;5053049;28;20425;-44
2024/03/06 01:04:26;;;;;;;3.50;2.50;;;10.40;99.90;;;;;;5050857;28;20562;-44
2024/03/06 01:06:56;;;;;;;5.13;2.63;;;10.40;99.90;;;;;;5053343;28;20527;-44
2024/03/06 01:09:27;;;;;;;3.80;2.70;;;10.40;99.90;;;;;;5053453;28;21115;-45
2024/03/06 01:11:56;;;;;;;2.93;2.60;;;10.40;99.90;;;;;;5053181;28;20486;-44
2024/03/06 01:14:25;;;;;;;5.90;2.67;;;10.40;99.90;;;;;;5051079;28;20976;-45
2024/03/06 01:16:55;;;;;;;3.27;2.30;;;10.40;99.90;;;;;;5053358;28;20949;-45
2024/03/06 01:19:26;;;;;;;2.97;2.13;;;10.40;99.90;;;;;;5053898;28;20451;-45
2024/03/06 01:21:57;;;;;;;3.67;2.53;;;10.40;99.90;;;;;;5057747;28;20457;-47
2024/03/06 01:24:26;;;;;;;3.90;2.60;;;10.40;99.90;;;;;;5055823;28;20466;-45
2024/03/06 01:26:54;;;;;;;2.60;2.10;;;10.40;99.90;;;;;;5056944;28;20423;-46
2024/03/06 01:29:23;;;;;;;2.83;2.27;;;10.40;99.90;;;;;;5051537;28;20459;-46
2024/03/06 01:31:55;;;;;;;2.77;2.10;;;10.40;99.90;;;;;;5055159;28;20531;-45
2024/03/06 01:34:27;;;;;;;2.47;2.10;;;10.40;99.90;;;;;;5047472;28;20467;-45
2024/03/06 01:36:56;;;;;;;3.10;2.10;;;10.40;99.90;;;;;;5057735;28;20459;-43
2024/03/06 01:39:25;;;;;;;3.23;2.47;;;10.40;99.90;;;;;;5050962;28;20440;-45
2024/03/06 01:41:56;;;;;;;2.43;2.23;;;10.40;99.90;;;;;;5055765;28;20591;-46
2024/03/06 01:44:25;;;;;;;2.97;2.20;;;10.40;99.90;;;;;;5059567;28;20978;-45
2024/03/06 01:46:54;;;;;;;2.27;2.03;;;10.40;99.90;;;;;;5051430;28;20436;-45
2024/03/06 01:49:24;;;;;;;2.50;2.20;;;10.40;99.90;;;;;;5050928;28;20436;-44
2024/03/06 01:52:09;;;;;;;2.90;2.20;;;10.40;99.90;;;;;;5049196;28;20474;-45
2024/03/06 01:54:42;;;;;;;2.93;2.07;;;10.40;99.90;;;;;;5057243;28;20643;-44
2024/03/06 01:57:13;;;;;;;2.63;2.10;;;10.40;99.90;;;;;;5054489;28;20435;-45
2024/03/06 01:59:42;;;;;;;2.17;1.60;;;10.40;99.90;;;;;;5055905;28;20879;-45
2024/03/06 02:02:12;;;;;;;3.27;2.27;;;10.40;99.90;;;;;;5056238;28;20420;-44
2024/03/06 02:04:40;;;;;;;2.50;2.00;;;10.40;99.90;;;;;;5046313;28;20462;-44
2024/03/06 02:07:15;;;;;;;2.50;2.03;;;10.30;99.90;;;;;;5095117;22;20488;-45
2024/03/06 02:09:46;;;;;;;2.40;2.10;;;10.30;99.90;;;;;;5031818;28;20428;-45
2024/03/06 02:12:16;;;;;;;2.93;2.20;;;10.40;99.90;;;;;;5026774;28;20840;-45
2024/03/06 02:14:46;;;;;;;2.93;2.10;;;10.30;99.90;;;;;;5028039;28;20461;-44
2024/03/06 02:17:16;;;;;;;2.00;1.60;;;10.30;99.90;;;;;;5012271;28;20535;-45
2024/03/06 02:19:45;;;;;;;2.20;1.77;;;10.30;99.90;;;;;;5008126;28;20468;-44
2024/03/06 02:22:17;;;;;;;2.60;1.83;;;10.30;99.90;;;;;;5012788;28;20954;-45
2024/03/06 02:24:48;;;;;;;2.70;2.13;;;10.30;99.90;;;;;;5011267;28;20894;-46
2024/03/06 02:27:17;;;;;;;2.90;2.23;;;10.30;99.90;;;;;;5004171;28;20822;-45
2024/03/06 02:29:45;;;;;;;2.60;2.40;;;10.30;99.90;;;;;;5011462;28;20441;-45
2024/03/06 02:32:17;;;;;;;3.30;2.07;;;10.30;99.90;;;;;;5011913;28;20430;-45
2024/03/06 02:34:45;;;;;;;1.90;1.60;;;10.30;99.90;;;;;;5011842;28;20843;-45
2024/03/06 02:37:15;;;;;;;2.53;2.10;;;10.30;99.90;;;;;;5009250;28;20488;-45
2024/03/06 02:39:47;;;;;;;2.73;2.00;;;10.30;99.90;;;;;;5010503;28;20948;-45
2024/03/06 02:42:17;;;;;;;1.90;1.50;;;10.30;99.90;;;;;;5009457;28;20446;-45
2024/03/06 02:44:46;;;;;;;2.63;1.90;;;10.30;99.90;;;;;;5012259;28;20453;-45
2024/03/06 02:47:15;;;;;;;2.20;1.90;;;10.30;99.90;;;;;;5010356;28;20499;-46
2024/03/06 02:49:46;;;;;;;4.50;1.87;;;10.30;99.90;;;;;;5008340;28;20528;-46
2024/03/06 02:52:15;;;;;;;1.90;1.63;;;10.30;99.90;;;;;;5011469;28;20438;-45
2024/03/06 02:54:44;;;;;;;2.40;1.60;;;10.30;99.90;;;;;;4997128;28;20825;-44
2024/03/06 02:57:13;;;;;;;2.47;1.83;;;10.20;99.90;;;;;;5010060;28;20831;-45
2024/03/06 02:59:41;;;;;;;2.73;2.00;;;10.30;99.90;;;;;;5009317;28;20584;-45
2024/03/06 03:02:11;;;;;;;2.40;1.90;;;10.30;99.90;;;;;;5013453;28;20532;-44
2024/03/06 03:04:41;;;;;;;2.77;1.73;;;10.30;99.90;;;;;;5005730;28;20470;-44
2024/03/06 03:07:12;;;;;;;2.30;2.10;;;10.30;99.90;;;;;;5012917;28;20561;-45
2024/03/06 03:09:42;;;;;;;2.47;1.93;;;10.30;99.90;;;;;;5013626;28;20936;-45
2024/03/06 03:12:13;;;;;;;4.93;1.90;;;10.30;99.90;;;;;;5008926;28;20460;-46
2024/03/06 03:14:42;;;;;;;2.00;1.80;;;10.20;99.90;;;;;;5010538;28;20672;-46
2024/03/06 03:17:12;;;;;;;1.80;1.40;;;10.30;99.90;;;;;;5011265;28;20503;-46
2024/03/06 03:19:41;;;;;;;2.10;1.87;;;10.20;99.90;;;;;;4991125;28;20503;-45
2024/03/06 03:22:13;;;;;;;2.60;1.90;;;10.20;99.90;;;;;;5011386;28;20787;-45
2024/03/06 03:24:43;;;;;;;2.10;1.53;;;10.20;99.90;;;;;;5007682;28;21062;-44
2024/03/06 03:27:13;;;;;;;2.40;1.50;;;10.20;99.90;;;;;;5010745;28;20900;-45
2024/03/06 03:29:41;;;;;;;2.20;1.60;;;10.20;99.90;;;;;;5010767;28;20441;-44
2024/03/06 03:32:10;;;;;;;2.00;1.57;;;10.20;99.90;;;;;;5008406;28;20449;-44
2024/03/06 03:34:40;;;;;;;2.53;1.73;;;10.20;99.90;;;;;;5008392;28;20908;-45
2024/03/06 03:37:13;;;;;;;2.27;1.47;;;10.20;99.90;;;;;;5008460;28;20995;-44
2024/03/06 03:39:42;;;;;;;2.27;1.77;;;10.20;99.90;;;;;;5009896;28;20470;-45
2024/03/06 03:42:10;;;;;;;1.83;1.43;;;10.20;99.90;;;;;;5009166;28;20540;-45
2024/03/06 03:44:42;;;;;;;2.17;1.77;;;10.20;99.90;;;;;;5006604;28;20516;-44
2024/03/06 03:47:12;;;;;;;2.60;2.00;;;10.20;99.90;;;;;;5010595;28;20523;-45
2024/03/06 03:49:42;;;;;;;3.03;1.93;;;10.20;99.90;;;;;;5007519;28;20544;-45
2024/03/06 03:52:15;;;;;;;1.90;1.70;;;10.20;99.90;;;;;;5010115;28;20775;-46
2024/03/06 03:54:45;;;;;;;2.77;1.93;;;10.20;99.90;;;;;;5015836;28;20521;-45
2024/03/06 03:57:14;;;;;;;2.20;1.50;;;10.20;99.90;;;;;;5009668;28;20555;-45
2024/03/06 03:59:53;;;;;;;2.20;1.40;;;10.20;99.90;;;;;;5011265;22;20445;31
2024/03/06 04:02:25;;;;;;;3.33;1.90;;;10.20;99.90;;;;;;5011500;28;21137;-48
2024/03/06 04:04:55;;;;;;;5.67;1.60;;;10.10;99.90;;;;;;5007596;28;21002;-47
2024/03/06 04:07:24;;;;;;;2.13;1.90;;;10.10;99.90;;;;;;5009269;28;20579;-48
2024/03/06 04:09:58;;;;;;;2.27;1.70;;;10.10;99.90;;;;;;5011481;28;20481;-49
2024/03/06 04:12:26;;;;;;;2.40;1.60;;;10.10;99.90;;;;;;5017029;28;20550;-49
2024/03/06 04:14:57;;;;;;;2.80;2.10;;;10.10;99.90;;;;;;5009287;28;20469;-48
2024/03/06 04:17:26;;;;;;;4.50;1.87;;;10.10;99.90;;;;;;5015955;28;20495;-47
2024/03/06 04:19:56;;;;;;;2.00;1.50;;;10.10;99.90;;;;;;5007994;28;20449;-47
2024/03/06 04:22:27;;;;;;;2.10;1.53;;;10.10;99.90;;;;;;5015310;28;20718;-47
2024/03/06 04:24:58;;;;;;;2.80;2.00;;;10.10;99.90;;;;;;5017500;28;20970;-47
2024/03/06 04:27:27;;;;;;;2.10;1.90;;;10.10;99.90;;;;;;5010083;28;20421;-48
2024/03/06 04:29:58;;;;;;;2.20;1.50;;;10.10;99.90;;;;;;5006257;28;20448;-48
2024/03/06 04:32:26;;;;;;;2.00;1.40;;;10.10;99.90;;;;;;5012378;28;20464;-48
2024/03/06 04:34:56;;;;;;;2.33;2.13;;;10.10;99.90;;;;;;5007060;28;20867;-48
2024/03/06 04:37:29;;;;;;;2.00;1.73;;;10.10;99.90;;;;;;5010726;28;20466;-47
2024/03/06 04:39:58;;;;;;;2.37;1.47;;;10.10;99.90;;;;;;5015979;28;20835;-47
2024/03/06 04:42:27;;;;;;;2.53;1.90;;;10.10;99.90;;;;;;5012603;28;20453;-48
2024/03/06 04:44:56;;;;;;;2.93;1.60;;;10.10;99.90;;;;;;5014124;28;21017;-48
2024/03/06 04:47:28;;;;;;;2.10;1.60;;;10.00;99.90;;;;;;5015882;28;20440;-48
2024/03/06 04:49:58;;;;;;;1.70;1.47;;;10.10;99.90;;;;;;5013768;28;20452;-48
2024/03/06 04:52:26;;;;;;;2.87;1.67;;;10.00;99.90;;;;;;5017559;28;20440;-48
2024/03/06 04:54:56;;;;;;;1.80;1.43;;;10.10;99.90;;;;;;5011587;28;20850;-46
2024/03/06 04:57:28;;;;;;;3.20;2.00;;;10.00;99.90;;;;;;5007548;28;20486;-46
2024/03/06 04:59:58;;;;;;;2.03;1.63;;;10.00;99.90;;;;;;5015182;28;20452;-47
2024/03/06 05:02:28;;;;;;;2.87;1.90;;;10.00;99.90;;;;;;5033312;28;20448;-47
2024/03/06 05:04:56;;;;;;;2.27;1.60;;;10.00;99.90;;;;;;5029185;28;20496;-47
2024/03/06 05:07:42;;;;;;;3.17;1.47;;;10.00;99.90;;;;;;5028449;28;20438;-47
2024/03/06 05:10:27;;;;;;;1.90;1.40;;;10.00;99.90;;;;;;5033046;28;20443;-49
2024/03/06 05:13:14;;;;;;;2.53;1.70;;;10.00;99.90;;;;;;5033612;28;20441;-48
2024/03/06 05:16:00;;;;;;;2.43;1.80;;;10.00;99.90;;;;;;5033260;28;20815;-47
2024/03/06 05:18:47;;;;;;;2.20;1.50;;;10.00;99.90;;;;;;5029589;28;20473;-47
2024/03/06 05:21:36;;;;;;;2.00;1.47;;;10.00;99.90;;;;;;5032310;28;20527;-48
2024/03/06 05:24:25;;;;;;;2.57;1.70;;;10.00;99.90;;;;;;5032381;28;20467;-48
2024/03/06 05:27:13;;;;;;;3.97;1.43;;;10.00;99.90;;;;;;5030539;28;20455;-47
2024/03/06 05:30:00;;;;;;;2.40;1.67;;;10.00;99.90;;;;;;5032231;28;20442;-48
2024/03/06 05:32:46;;;;;;;2.60;2.00;;;10.00;99.90;;;;;;5029982;28;20455;-48
2024/03/06 05:35:34;;;;;;;2.00;1.60;;;10.00;99.90;;;;;;5027970;28;20468;-47
2024/03/06 05:38:22;;;;;;;2.53;1.50;;;10.00;99.90;;;;;;5029905;28;21029;-47
2024/03/06 05:41:12;;;;;;;1.90;1.40;;;10.00;99.90;;;;;;5028669;28;20810;-46
2024/03/06 05:43:57;;;;;;;2.47;1.73;;;10.00;99.90;;;;;;5013513;28;20444;-47
2024/03/06 05:46:46;;;;;;;2.43;1.57;;;9.90;99.90;;;;;;5031161;28;20448;-48
2024/03/06 05:49:35;;;;;;;2.80;1.80;;;9.90;99.90;;;;;;5028951;28;20525;-47
2024/03/06 05:52:25;;;;;;;2.10;1.70;;;9.90;99.90;;;;;;5029804;28;20953;-47
2024/03/06 05:55:12;;;;;;;1.97;1.80;;;9.90;99.90;;;;;;5026808;28;20845;-47
2024/03/06 05:57:57;;;;;;;1.73;1.37;;;9.90;99.90;;;;;;5031588;28;21064;-47
2024/03/06 06:00:36;;;;;;;4.33;1.83;;;9.90;99.90;;;;;;5031556;28;20539;-51
2024/03/06 06:03:08;;;;;;;2.10;1.47;;;9.90;99.90;;;;;;5026084;28;20535;-46
2024/03/06 06:05:37;;;;;;;2.07;1.30;;;9.90;99.90;;;;;;5029967;28;20464;-50
2024/03/06 06:08:08;;;;;;;2.63;1.63;;;9.90;99.90;;;;;;5031691;28;20824;-47
2024/03/06 06:10:37;;;;;;;1.93;1.60;;;9.90;99.90;;;;;;5031041;28;20428;-49
2024/03/06 06:13:06;;;;;;;1.87;1.40;;;9.90;99.90;;;;;;5032116;28;20479;-48
2024/03/06 06:15:34;;;;;;;2.00;1.60;;;9.90;99.90;;;;;;5028267;28;20981;-48
2024/03/06 06:18:02;;;;;;;2.40;1.60;;;9.90;99.90;;;;;;5022449;28;20475;-47
2024/03/06 06:20:31;;;;;;;1.97;1.43;;;9.90;99.90;;;;;;5028769;28;20459;-48
2024/03/06 06:23:01;;;;;;;1.87;1.33;;;9.90;99.90;;;;;;5030866;28;20893;-49
2024/03/06 06:25:32;;;;;;;2.30;1.90;;;9.90;99.90;;;;;;5031039;28;20457;-49
2024/03/06 06:28:00;;;;;;;2.60;1.80;;;9.80;99.90;;;;;;5027782;28;20470;-48
2024/03/06 06:30:30;;;;;;;2.10;1.30;;;9.80;99.90;;;;;;5030569;28;20440;-47
2024/03/06 06:33:01;;;;;;;1.60;1.37;;;9.80;99.90;;;;;;5031217;28;20528;-45
2024/03/06 06:35:29;;;;;;;3.27;1.77;;;9.80;99.90;;;;;;5027643;28;20455;-48
2024/03/06 06:37:57;;;;;;;2.03;1.30;;;9.80;99.90;;;;;;5028852;28;20523;-47
2024/03/06 06:40:25;;;;;;;1.97;1.40;;;9.80;99.90;;;;;;5030817;28;20432;-47
2024/03/06 06:42:56;;;;;;;2.30;1.40;;;9.80;99.90;;;;;;5030513;28;20468;-45
2024/03/06 06:45:25;;;;;;;2.03;1.53;;;9.80;99.90;;;;;;5031057;28;20455;-49
2024/03/06 06:47:55;;;;;;;1.87;1.40;;;9.80;99.90;;;;;;5024388;28;20479;-47
2024/03/06 06:50:27;;;;;;;2.53;1.53;;;9.80;99.90;;;;;;5028040;28;20519;-45
2024/03/06 06:52:56;;;;;;;4.17;1.73;;;9.80;99.90;;;;;;5029846;28;20956;-46
2024/03/06 06:55:25;;;;;;;1.70;1.30;;;9.80;99.90;;;;;;5030708;28;20445;-47
2024/03/06 06:57:53;;;;;;;3.20;2.13;;;9.80;99.90;;;;;;5028041;28;20475;-45
2024/03/06 07:00:28;;;;;;;1.97;1.20;;;9.80;99.90;;;;;;5025345;28;20452;-48
2024/03/06 07:02:58;;;;;;;2.87;1.60;;;9.80;99.90;;;;;;5029545;28;20968;-48
2024/03/06 07:05:26;;;;;;;1.63;1.40;;;9.80;99.90;;;;;;5026526;28;20484;-48
2024/03/06 07:07:56;;;;;;;2.97;1.70;;;9.80;99.90;;;;;;5029501;28;20436;-46
2024/03/06 07:10:27;;;;;;;2.20;1.50;;;9.80;99.90;;;;;;5030633;28;20487;-47
2024/03/06 07:12:56;;;;;;;1.70;1.37;;;9.80;99.90;;;;;;5025128;28;21033;-46
2024/03/06 07:15:28;;;;;;;1.93;1.73;;;9.80;99.90;;;;;;5030700;28;20807;-46
2024/03/06 07:17:57;;;;;;;2.77;1.93;;;9.70;99.90;;;;;;5029612;28;20534;-46
2024/03/06 07:20:26;;;;;;;2.10;1.40;;;9.80;99.90;;;;;;5027707;28;20444;-47
2024/03/06 07:22:56;;;;;;;2.37;2.00;;;9.80;99.90;;;;;;5029934;28;20443;-48
2024/03/06 07:25:26;;;;;;;1.70;1.37;;;9.70;99.90;;;;;;5030040;28;20456;-49
2024/03/06 07:27:55;;;;;;;1.67;1.40;;;9.80;99.90;;;;;;5026668;28;20452;-47
2024/03/06 07:30:29;;;;;;;2.70;1.80;;;9.80;99.90;;;;;;5028894;28;20428;-47
2024/03/06 07:32:58;;;;;;;2.10;1.67;;;9.70;99.90;;;;;;5029560;28;20432;-45
2024/03/06 07:35:26;;;;;;;2.60;1.90;;;9.70;99.90;;;;;;5025994;28;20463;-47
2024/03/06 07:37:57;;;;;;;2.50;1.60;;;9.70;99.90;;;;;;5028706;28;20546;-47
2024/03/06 07:40:26;;;;;;;2.23;1.67;;;9.70;99.90;;;;;;5030197;28;20837;-46
2024/03/06 07:42:56;;;;;;;1.90;1.57;;;9.70;99.90;;;;;;5028930;28;20524;-45
2024/03/06 07:45:25;;;;;;;2.30;1.40;;;9.70;99.90;;;;;;5029337;28;20455;-48
2024/03/06 07:47:58;;;;;;;3.80;2.10;;;9.70;99.90;;;;;;5012222;28;20456;-48
2024/03/06 07:50:27;;;;;;;3.00;2.37;;;9.70;99.90;;;;;;5027422;28;20520;-48
2024/03/06 07:52:56;;;;;;;3.07;1.90;;;9.70;99.90;;;;;;5028895;28;20460;-48
2024/03/06 07:55:26;;;;;;;2.10;1.80;;;9.70;99.90;;;;;;5029717;28;21004;-48
2024/03/06 07:57:56;;;;;;;2.20;1.60;;;9.70;99.90;;;;;;5033929;28;20444;-47
2024/03/06 08:00:27;;;;;;;2.73;1.93;;;9.70;99.90;;;;;;5026277;28;20463;-47
2024/03/06 08:02:55;;;;;;;2.80;1.83;;;9.70;99.90;;;;;;5030140;28;20428;-45
2024/03/06 08:05:28;;;;;;;3.50;2.40;;;9.70;99.90;;;;;;5026685;28;20472;-46
2024/03/06 08:07:56;;;;;;;2.20;1.53;;;9.70;99.90;;;;;;5027834;28;20515;-46
2024/03/06 08:10:25;;;;;;;2.10;1.47;;;9.70;99.90;;;;;;5011182;28;20942;-48
2024/03/06 08:12:55;;;;;;;1.90;1.47;;;9.70;99.90;;;;;;5030495;28;20527;-47
2024/03/06 08:15:26;;;;;;;3.57;1.40;;;9.70;99.90;;;;;;5032713;28;20455;-48
2024/03/06 08:17:55;;;;;;;2.10;1.60;;;9.70;99.90;;;;;;5031681;28;20530;-46
2024/03/06 08:20:27;;;;;;;4.20;2.43;;;9.80;99.90;;;;;;5029236;28;20535;-47
2024/03/06 08:22:57;;;;;;;3.30;2.20;;;9.80;99.90;;;;;;5032009;28;20461;-47
2024/03/06 08:25:27;;;;;;;4.57;2.47;;;9.80;99.90;;;;;;5035528;28;20992;-49
2024/03/06 08:27:57;;;;;;;2.70;2.03;;;9.80;99.90;;;;;;5016433;28;20460;-47
2024/03/06 08:30:26;;;;;;;3.50;2.57;;;9.80;99.90;;;;;;5033696;28;20420;-47
2024/03/06 08:32:57;;;;;;;4.10;2.43;;;9.80;99.90;;;;;;5033094;28;20597;-46
2024/03/06 08:35:28;;;;;;;3.30;2.23;;;9.80;99.90;;;;;;5029863;28;21100;-48
2024/03/06 08:37:56;;;;;;;3.50;2.43;;;9.80;99.90;;;;;;5026417;28;20661;-46
2024/03/06 08:40:27;;;;;;;3.53;2.17;;;9.80;99.90;;;;;;5032924;28;20690;-48
2024/03/06 08:42:56;;;;;;;2.70;2.00;;;9.80;99.90;;;;;;5031557;28;20511;-46
2024/03/06 08:45:25;;;;;;;4.03;2.53;;;9.80;99.90;;;;;;5026821;28;20463;-48
2024/03/06 08:47:55;;;;;;;2.57;1.83;;;9.80;99.90;;;;;;5030491;28;20504;-46
2024/03/06 08:50:28;;;;;;;2.33;1.80;;;9.80;99.90;;;;;;5028126;28;20974;-45
2024/03/06 08:52:58;;;;;;;2.90;2.00;;;9.80;99.90;;;;;;5031629;28;20527;-47
2024/03/06 08:55:26;;;;;;;3.37;1.80;;;9.80;99.90;;;;;;5139534;22;21011;-45
2024/03/06 08:57:56;;;;;;;2.80;1.80;;;9.80;99.90;;;;;;5063504;28;20452;-44
2024/03/06 09:00:26;;;;;;;3.47;1.80;;;9.80;99.90;;;;;;5070166;28;20604;-45
2024/03/06 09:02:56;;;;;;;2.03;1.63;;;9.80;99.90;;;;;;5072871;28;20436;-44
2024/03/06 09:05:28;;;;;;;2.17;1.50;;;9.80;99.90;;;;;;5069655;28;20490;-44
2024/03/06 09:07:57;;;;;;;2.60;1.80;;;9.80;99.90;;;;;;5072732;28;20426;-44
2024/03/06 09:10:31;;;;;;;3.27;2.17;;;9.80;99.90;;;;;;5069498;28;20444;-44
2024/03/06 09:13:00;;;;;;;2.87;1.83;;;9.80;99.90;;;;;;5064325;28;20500;-44
2024/03/06 09:15:30;;;;;;;2.50;1.80;;;9.80;99.90;;;;;;5045347;28;20463;-45
2024/03/06 09:17:58;;;;;;;2.03;1.60;;;9.80;99.90;;;;;;5071319;28;20912;-44
2024/03/06 09:20:28;;;;;;;1.80;1.43;;;9.80;99.90;;;;;;5069427;28;20474;-44
2024/03/06 09:22:59;;;;;;;3.03;1.50;;;9.80;99.90;;;;;;5066306;28;20450;-46
2024/03/06 09:25:28;;;;;;;2.00;1.50;;;9.80;99.90;;;;;;5070782;28;20842;-44
2024/03/06 09:27:59;;;;;;;3.67;2.60;;;9.80;99.90;;;;;;5065082;28;20756;-44
2024/03/06 09:30:28;;;;;;;3.13;1.80;;;9.80;99.90;;;;;;5065160;28;20441;-45
2024/03/06 09:32:57;;;;;;;3.20;2.10;;;9.80;99.90;;;;;;5068844;28;20975;-44
2024/03/06 09:35:28;;;;;;;2.10;1.37;;;9.80;99.90;;;;;;5064458;28;20513;-45
2024/03/06 09:37:57;;;;;;;3.43;1.47;;;9.80;99.90;;;;;;5068286;28;20485;-44
2024/03/06 09:40:26;;;;;;;2.67;1.87;;;9.90;99.90;;;;;;5070901;28;20465;-45
2024/03/06 09:42:56;;;;;;;2.87;1.87;;;9.90;99.90;;;;;;5059858;28;20442;-44
2024/03/06 09:45:26;;;;;;;4.30;2.30;;;9.90;99.90;;;;;;5059990;28;20960;-44
2024/03/06 09:47:57;;;;;;;2.40;1.80;;;9.80;99.90;;;;;;5066097;28;20442;-45
2024/03/06 09:50:28;;;;;;;2.27;1.43;;;9.90;99.90;;;;;;5063805;28;20444;-44
2024/03/06 09:52:57;;;;;;;2.63;1.60;;;9.90;99.90;;;;;;5066127;28;20850;-44
2024/03/06 09:55:27;;;;;;;2.67;2.13;;;9.90;99.90;;;;;;5063963;28;20545;-44
2024/03/06 09:57:56;;;;;;;2.73;1.80;;;9.90;99.90;;;;;;5070834;28;20441;-44
2024/03/06 10:00:26;;;;;;;1.70;1.40;;;9.90;99.90;;;;;;5064561;28;20458;-44
2024/03/06 10:03:00;;;;;;;2.13;1.60;;;9.90;99.90;;;;;;5058128;28;20523;-44
2024/03/06 10:05:33;;;;;;;2.10;1.50;;;9.90;99.90;;;;;;5065740;28;20511;-44
2024/03/06 10:08:03;;;;;;;2.40;1.20;;;9.90;99.90;;;;;;5071203;28;20434;-44
2024/03/06 10:10:32;;;;;;;2.33;1.63;;;9.90;99.90;;;;;;5062622;28;20442;-44
2024/03/06 10:13:00;;;;;;;2.90;1.60;;;9.90;99.90;;;;;;5071508;28;20915;-44
2024/03/06 10:15:35;;;;;;;2.10;1.50;;;9.90;99.90;;;;;;5064276;28;20963;-45
2024/03/06 10:18:14;;;;;;;1.83;1.40;;;9.80;99.90;;;;;;5060664;28;20593;-44
2024/03/06 10:20:45;;;;;;;2.00;1.33;;;9.80;99.90;;;;;;5044953;28;20848;-44
2024/03/06 10:23:17;;;;;;;2.50;1.50;;;9.90;99.90;;;;;;5061313;28;20571;-44
2024/03/06 10:25:50;;;;;;;1.60;1.13;;;9.90;99.90;;;;;;5066526;28;20503;-45
2024/03/06 10:28:24;;;;;;;2.93;1.50;;;9.90;99.90;;;;;;5066023;28;20478;-45
2024/03/06 10:31:07;;;;;;;2.07;1.37;;;9.90;99.90;;;;;;5066921;28;20477;-45
2024/03/06 10:33:37;;;;;;;2.37;1.53;;;9.90;99.90;;;;;;5062030;28;20509;-44
2024/03/06 10:36:12;;;;;;;1.83;1.20;;;9.80;99.90;;;;;;5062682;28;20466;-44
2024/03/06 10:38:44;;;;;;;3.47;1.70;;;9.90;99.90;;;;;;5065119;28;20434;-44
2024/03/06 10:41:15;;;;;;;2.73;1.67;;;9.80;99.90;;;;;;5066054;28;20557;-44
2024/03/06 10:43:51;;;;;;;2.10;1.47;;;9.90;99.90;;;;;;5058694;28;20446;-44
2024/03/06 10:46:24;;;;;;;2.20;1.47;;;9.90;99.90;;;;;;5066503;28;20820;-45
2024/03/06 10:48:53;;;;;;;2.33;1.40;;;9.80;99.90;;;;;;5061995;28;20566;-44
2024/03/06 10:51:29;;;;;;;1.87;1.43;;;9.80;99.90;;;;;;5063615;28;20458;-45
2024/03/06 10:53:58;;;;;;;2.43;1.37;;;9.80;99.90;;;;;;5066916;28;20452;-45
2024/03/06 10:56:27;;;;;;;2.80;1.60;;;9.80;99.90;;;;;;5064301;28;20979;-44
2024/03/06 10:58:58;;;;;;;1.70;1.17;;;9.80;99.90;;;;;;5061244;28;21019;-44
2024/03/06 11:01:28;;;;;;;1.50;1.20;;;9.80;99.90;;;;;;5045398;28;20454;-44
2024/03/06 11:03:59;;;;;;;2.43;1.37;;;9.80;99.90;;;;;;5067429;28;20450;-44
2024/03/06 11:06:28;;;;;;;2.10;1.30;;;9.80;99.90;;;;;;5063946;28;20446;-44
2024/03/06 11:08:57;;;;;;;2.33;1.47;;;9.80;99.90;;;;;;5064742;28;20487;-45
2024/03/06 11:11:27;;;;;;;2.37;1.37;;;9.80;99.90;;;;;;5062632;28;20441;-44
2024/03/06 11:14:00;;;;;;;4.17;1.60;;;9.80;99.90;;;;;;5064661;28;20452;-45
2024/03/06 11:16:33;;;;;;;2.57;1.50;;;9.80;99.90;;;;;;5068231;28;20507;-45
2024/03/06 11:19:08;;;;;;;2.17;1.60;;;9.80;99.90;;;;;;5047857;28;20446;-45
2024/03/06 11:21:48;;;;;;;3.87;1.73;;;9.80;99.90;;;;;;5061344;28;20474;-45
2024/03/06 11:24:19;;;;;;;1.80;1.43;;;9.80;99.90;;;;;;5065047;28;20422;-44
2024/03/06 11:26:49;;;;;;;3.13;1.50;;;9.80;99.90;;;;;;5060020;28;20418;-45
2024/03/06 11:29:18;;;;;;;2.10;1.70;;;9.80;99.90;;;;;;5063020;28;20446;-44
2024/03/06 11:32:06;;;;;;;2.20;1.40;;;9.80;99.90;;;;;;5064586;28;20523;-44
2024/03/06 11:34:37;;;;;;;1.90;1.50;;;9.80;99.90;;;;;;5061403;28;20466;-44
2024/03/06 11:37:09;;;;;;;2.27;1.77;;;9.80;99.90;;;;;;5059931;28;20431;-44
2024/03/06 11:39:44;;;;;;;1.70;1.27;;;9.80;99.90;;;;;;5063434;28;20943;-44
2024/03/06 11:42:14;;;;;;;1.97;1.10;;;9.80;99.90;;;;;;5065311;28;20812;-44
2024/03/06 11:44:55;;;;;;;1.77;1.23;;;9.80;99.90;;;;;;5067961;28;20974;-44
2024/03/06 11:47:27;;;;;;;2.53;1.53;;;9.80;99.90;;;;;;5071945;28;20439;-44
2024/03/06 11:49:56;;;;;;;2.27;1.60;;;9.80;99.90;;;;;;5063689;28;20846;-44
2024/03/06 11:52:28;;;;;;;2.23;1.67;;;9.80;99.90;;;;;;5072221;28;20422;-44
2024/03/06 11:54:57;;;;;;;1.90;1.40;;;9.80;99.90;;;;;;5072147;28;20843;-44
2024/03/06 11:57:26;;;;;;;1.63;1.00;;;9.80;99.90;;;;;;5068763;28;20438;-44
2024/03/06 11:59:55;;;;;;;2.20;1.50;;;9.80;99.90;;;;;;5070139;28;20812;-44
2024/03/06 12:02:27;;;;;;;2.17;1.53;;;9.80;99.90;;;;;;5072508;28;20454;-45
2024/03/06 12:04:56;;;;;;;2.13;1.47;;;9.80;99.90;;;;;;5070014;28;20475;-44
2024/03/06 12:07:26;;;;;;;2.47;1.70;;;9.80;99.90;;;;;;5073308;28;20993;-44
2024/03/06 12:09:58;;;;;;;2.20;1.50;;;9.80;99.90;;;;;;5074162;28;20928;-45
2024/03/06 12:12:26;;;;;;;2.13;1.80;;;9.80;99.90;;;;;;5069008;28;20442;-45
2024/03/06 12:15:00;;;;;;;2.27;1.43;;;9.80;99.90;;;;;;5073325;28;20516;-44
2024/03/06 12:17:29;;;;;;;1.90;1.20;;;9.80;99.90;;;;;;5071566;28;20442;-44
2024/03/06 12:19:57;;;;;;;1.90;1.43;;;9.80;99.90;;;;;;5070544;28;20450;-45
2024/03/06 12:22:27;;;;;;;1.90;1.30;;;9.80;99.90;;;;;;5069656;28;20956;-44
2024/03/06 12:25:01;;;;;;;2.00;1.43;;;9.80;99.90;;;;;;5069080;28;20509;-45
2024/03/06 12:27:30;;;;;;;1.93;1.23;;;9.80;99.90;;;;;;5068545;28;20751;-44
2024/03/06 12:30:00;;;;;;;2.00;1.13;;;9.80;99.90;;;;;;5064836;28;20517;-45
2024/03/06 12:32:29;;;;;;;1.97;1.00;;;9.80;99.90;;;;;;5068747;28;21410;-45
2024/03/06 12:35:00;;;;;;;2.57;1.30;;;9.80;99.90;;;;;;5065561;28;20462;-44
2024/03/06 12:37:32;;;;;;;2.20;1.00;;;9.80;99.90;;;;;;5067163;28;20454;-45
2024/03/06 12:40:04;;;;;;;2.10;1.40;;;9.80;99.90;;;;;;5066740;28;20984;-45
2024/03/06 12:42:33;;;;;;;1.70;1.17;;;9.80;99.90;;;;;;5071337;28;20515;-45
2024/03/06 12:45:03;;;;;;;1.60;1.30;;;9.80;99.90;;;;;;5064808;28;20446;-45
2024/03/06 12:47:31;;;;;;;1.57;0.97;;;9.80;99.90;;;;;;5061863;28;21157;-44
2024/03/06 12:50:00;;;;;;;2.30;1.40;;;9.80;99.90;;;;;;5069921;28;20975;-44
2024/03/06 12:52:29;;;;;;;2.23;1.10;;;9.80;99.90;;;;;;5072081;28;20430;-44
2024/03/06 12:54:57;;;;;;;1.60;1.10;;;9.90;99.90;;;;;;5067584;28;20462;-45
2024/03/06 12:57:28;;;;;;;2.67;1.40;;;9.90;99.90;;;;;;5064017;28;20436;-45
2024/03/06 12:59:56;;;;;;;2.20;1.40;;;9.90;99.90;;;;;;5067582;28;20470;-45
2024/03/06 13:02:25;;;;;;;1.87;1.40;;;9.90;99.90;;;;;;5067768;28;21035;-45
2024/03/06 13:04:56;;;;;;;1.40;1.00;;;9.90;99.90;;;;;;5067394;28;20457;-44
2024/03/06 13:07:27;;;;;;;2.40;1.20;;;9.80;99.90;;;;;;5067746;28;20799;-44
2024/03/06 13:09:56;;;;;;;2.80;1.50;;;9.90;99.90;;;;;;5067092;28;20442;-45
2024/03/06 13:12:28;;;;;;;4.30;1.50;;;9.90;99.90;;;;;;5064156;28;20437;-44
2024/03/06 13:14:56;;;;;;;2.00;1.40;;;9.80;99.90;;;;;;5068449;28;20546;-44